createdAt,value
2023-04-21T00:01:36.827Z,9.77
2023-04-21T00:05:48.805Z,9.71
2023-04-21T00:09:51.579Z,9.74
2023-04-21T00:13:25.033Z,9.85
2023-04-21T00:17:05.272Z,9.73
2023-04-21T00:20:56.040Z,9.84
2023-04-21T00:24:23.097Z,9.78
2023-04-21T00:28:14.855Z,9.73
2023-04-21T00:31:44.274Z,9.78
2023-04-21T00:35:13.540Z,9.85
2023-04-21T00:39:03.418Z,9.89
2023-04-21T00:42:52.749Z,9.89
2023-04-21T00:46:22.033Z,9.91
2023-04-21T00:49:54.044Z,9.85
2023-04-21T00:53:25.408Z,9.81
2023-04-21T00:57:03.048Z,9.81
2023-04-21T01:00:53.048Z,9.77
2023-04-21T01:04:51.553Z,9.69
2023-04-21T01:09:01.465Z,9.60
2023-04-21T01:12:06.337Z,9.54
2023-04-21T01:15:45.512Z,9.51
2023-04-21T01:19:56.466Z,9.61
2023-04-21T01:23:29.088Z,9.44
2023-04-21T01:27:27.536Z,9.37
2023-04-21T01:35:50.212Z,9.12
2023-04-21T01:39:30.931Z,9.05
2023-04-21T01:43:20.538Z,9.02
2023-04-21T01:47:41.979Z,8.88
2023-04-21T01:51:46.829Z,8.76
2023-04-21T01:55:27.782Z,8.70
2023-04-21T01:59:33.065Z,8.67
2023-04-21T02:03:40.759Z,8.64
2023-04-21T02:07:12.127Z,8.73
2023-04-21T02:10:37.027Z,8.55
2023-04-21T02:14:16.511Z,8.46
2023-04-21T02:18:09.195Z,8.48
2023-04-21T02:21:41.195Z,8.34
2023-04-21T02:25:11.188Z,8.25
2023-04-21T02:28:37.915Z,8.16
2023-04-21T02:32:26.026Z,8.20
2023-04-21T02:36:18.261Z,8.06
2023-04-21T02:40:25.918Z,8.04
2023-04-21T02:44:00.408Z,8.00
2023-04-21T02:47:25.164Z,8.05
2023-04-21T02:51:16.436Z,7.98
2023-04-21T02:54:56.890Z,7.94
2023-04-21T02:59:23.836Z,7.88
2023-04-21T03:07:33.880Z,7.80
2023-04-21T03:11:34.504Z,7.74
2023-04-21T03:15:25.890Z,7.67
2023-04-21T03:18:51.891Z,7.72
2023-04-21T03:22:45.457Z,7.65
2023-04-21T03:26:10.270Z,7.61
2023-04-21T03:30:13.501Z,7.65
2023-04-21T03:33:16.626Z,7.61
2023-04-21T03:36:52.530Z,7.68
2023-04-21T03:40:37.956Z,7.65
2023-04-21T03:44:02.484Z,7.75
2023-04-21T03:47:56.861Z,7.79
2023-04-21T03:51:42.684Z,7.75
2023-04-21T03:55:26.309Z,7.82
2023-04-21T03:59:37.739Z,7.91
2023-04-21T04:02:44.800Z,7.97
2023-04-21T04:06:26.184Z,8.13
2023-04-21T04:13:42.718Z,8.22
2023-04-21T04:17:34.576Z,8.31
2023-04-21T04:20:40.985Z,8.37
2023-04-21T04:24:28.076Z,8.51
2023-04-21T04:27:59.118Z,8.50
2023-04-21T04:32:24.588Z,8.59
2023-04-21T04:36:31.273Z,8.59
2023-04-21T04:44:23.840Z,8.78
2023-04-21T04:47:56.264Z,8.91
2023-04-21T04:51:26.194Z,9.00
2023-04-21T04:55:11.187Z,9.05
2023-04-21T04:59:03.961Z,9.07
2023-04-21T05:02:47.614Z,9.25
2023-04-21T05:14:10.009Z,9.81
2023-04-21T05:21:42.163Z,10.12
2023-04-21T05:26:02.658Z,10.34
2023-04-21T05:29:43.838Z,10.49
2023-04-21T05:33:48.751Z,10.57
2023-04-21T05:37:45.953Z,10.75
2023-04-21T05:41:30.855Z,10.85
2023-04-21T05:45:27.924Z,11.01
2023-04-21T05:49:22.310Z,11.07
2023-04-21T06:05:14.731Z,11.65
2023-04-21T07:43:34.050Z,15.85
2023-04-21T07:58:47.004Z,17.41
2023-04-21T08:02:51.748Z,17.93
2023-04-21T08:14:06.502Z,18.90
2023-04-21T08:17:37.493Z,18.70
2023-04-21T08:30:09.268Z,20.85
2023-04-21T08:33:53.892Z,20.88
2023-04-21T08:37:09.980Z,20.86
2023-04-21T08:40:46.768Z,21.00
2023-04-21T08:44:16.201Z,20.88
2023-04-21T08:47:24.343Z,21.53
2023-04-21T08:50:52.646Z,21.86
2023-04-21T08:54:37.480Z,23.15
2023-04-21T08:58:04.593Z,22.16
2023-04-21T09:02:15.753Z,23.69
2023-04-21T09:05:26.417Z,23.67
2023-04-21T09:08:58.920Z,23.52
2023-04-21T09:12:05.606Z,23.28
2023-04-21T09:15:39.454Z,23.51
2023-04-21T09:18:57.114Z,23.19
2023-04-21T09:22:33.953Z,23.50
2023-04-21T09:25:41.405Z,23.48
2023-04-21T09:28:49.991Z,22.86
2023-04-21T09:32:22.512Z,23.88
2023-04-21T09:36:03.470Z,23.81
2023-04-21T09:39:46.241Z,23.95
2023-04-21T09:43:20.535Z,23.95
2023-04-21T09:46:54.376Z,24.04
2023-04-21T10:02:29.609Z,24.38
2023-04-21T10:10:03.179Z,25.67
2023-04-21T10:13:15.838Z,25.45
2023-04-21T10:16:39.185Z,26.01
2023-04-21T10:19:59.257Z,25.55
2023-04-21T10:23:11.433Z,25.02
2023-04-21T10:27:35.669Z,25.18
2023-04-21T10:31:24.770Z,24.21
2023-04-21T10:34:49.556Z,24.97
2023-04-21T10:42:37.286Z,25.26
2023-04-21T10:45:56.112Z,24.43
2023-04-21T10:49:42.705Z,24.69
2023-04-21T10:53:22.871Z,24.08
2023-04-21T10:57:01.969Z,24.35
2023-04-21T11:00:07.359Z,24.81
2023-04-21T11:03:11.272Z,25.12
2023-04-21T11:06:16.797Z,23.97
2023-04-21T11:09:21.149Z,23.52
2023-04-21T11:12:44.113Z,22.82
2023-04-21T11:16:08.312Z,22.72
2023-04-21T11:19:34.233Z,22.80
2023-04-21T11:22:41.168Z,22.60
2023-04-21T11:25:47.516Z,21.78
2023-04-21T11:28:54.085Z,21.69
2023-04-21T11:32:00.403Z,21.66
2023-04-21T11:35:24.587Z,20.87
2023-04-21T11:38:41.328Z,20.86
2023-04-21T11:41:53.753Z,20.36
2023-04-21T11:44:57.486Z,20.76
2023-04-21T11:48:18.228Z,20.82
2023-04-21T11:51:24.103Z,20.12
2023-04-21T11:54:32.800Z,19.82
2023-04-21T11:57:40.064Z,20.31
2023-04-21T12:01:09.874Z,20.82
2023-04-21T12:04:35.141Z,20.31
2023-04-21T12:07:42.199Z,20.08
2023-04-21T12:10:49.264Z,20.12
2023-04-21T12:14:14.779Z,20.01
2023-04-21T12:17:57.770Z,19.82
2023-04-21T12:21:35.820Z,19.63
2023-04-21T12:24:45.621Z,19.90
2023-04-21T12:27:54.885Z,19.29
2023-04-21T12:30:58.399Z,19.46
2023-04-21T12:35:25.982Z,19.79
2023-04-21T12:38:50.025Z,19.00
2023-04-21T12:42:15.179Z,18.86
2023-04-21T12:45:52.935Z,19.15
2023-04-21T12:49:01.243Z,18.97
2023-04-21T12:52:16.081Z,19.16
2023-04-21T12:56:04.548Z,18.75
2023-04-21T12:59:46.222Z,18.99
2023-04-21T13:03:54.037Z,18.95
2023-04-21T13:07:35.035Z,19.00
2023-04-21T13:11:25.584Z,19.06
2023-04-21T13:15:21.930Z,19.10
2023-04-21T13:18:29.869Z,19.11
2023-04-21T13:21:35.377Z,19.25
2023-04-21T13:25:09.317Z,19.31
2023-04-21T13:28:59.326Z,19.20
2023-04-21T13:32:44.600Z,19.25
2023-04-21T13:35:51.651Z,19.49
2023-04-21T13:38:56.688Z,19.53
2023-04-21T13:42:40.051Z,19.37
2023-04-21T13:46:05.388Z,19.42
2023-04-21T13:49:08.218Z,19.40
2023-04-21T13:53:21.159Z,19.51
2023-04-21T13:56:51.768Z,19.38
2023-04-21T13:59:56.695Z,19.07
2023-04-21T14:03:02.543Z,19.21
2023-04-21T14:06:47.149Z,19.16
2023-04-21T14:09:53.282Z,19.27
2023-04-21T14:13:39.544Z,19.74
2023-04-21T14:17:12.756Z,19.80
2023-04-21T14:20:22.467Z,19.61
2023-04-21T14:23:27.516Z,19.99
2023-04-21T14:30:26.264Z,20.08
2023-04-21T14:33:33.469Z,20.13
2023-04-21T14:36:37.604Z,19.82
2023-04-21T14:44:16.729Z,19.95
2023-04-21T14:47:52.225Z,20.32
2023-04-21T14:50:58.157Z,20.57
2023-04-21T15:01:50.315Z,20.11
2023-04-21T15:04:57.080Z,19.94
2023-04-21T15:08:45.044Z,20.05
2023-04-21T15:16:24.200Z,19.96
2023-04-21T15:19:29.350Z,20.13
2023-04-21T15:22:37.687Z,19.90
2023-04-21T15:26:05.100Z,19.71
2023-04-21T15:29:10.156Z,19.25
2023-04-21T15:32:38.047Z,19.15
2023-04-21T15:35:42.447Z,19.36
2023-04-21T15:39:26.013Z,19.03
2023-04-21T15:42:29.287Z,19.01
2023-04-21T15:45:37.690Z,19.45
2023-04-21T15:49:13.342Z,19.62
2023-04-21T15:52:17.450Z,19.22
2023-04-21T15:55:22.198Z,19.02
2023-04-21T15:59:00.783Z,18.74
2023-04-21T16:02:41.709Z,18.45
2023-04-21T16:06:06.773Z,18.57
2023-04-21T16:09:11.049Z,18.42
2023-04-21T16:12:14.505Z,18.63
2023-04-21T16:15:51.715Z,18.59
2023-04-21T16:18:55.690Z,18.73
2023-04-21T16:22:03.917Z,18.75
2023-04-21T16:25:31.996Z,18.77
2023-04-21T16:28:57.802Z,18.79
2023-04-21T16:32:05.040Z,18.35
2023-04-21T16:35:09.248Z,18.18
2023-04-21T16:38:12.782Z,17.99
2023-04-21T16:41:36.616Z,17.91
2023-04-21T16:44:45.614Z,17.66
2023-04-21T16:48:09.847Z,17.50
2023-04-21T16:51:54.300Z,17.28
2023-04-21T16:55:07.548Z,17.17
2023-04-21T16:58:12.941Z,17.00
2023-04-21T17:01:39.105Z,16.76
2023-04-21T17:04:42.744Z,16.59
2023-04-21T17:08:14.224Z,16.42
2023-04-21T17:11:19.238Z,16.17
2023-04-21T17:14:22.625Z,15.97
2023-04-21T17:17:27.152Z,15.76
2023-04-21T17:20:36.559Z,15.58
2023-04-21T17:23:39.857Z,15.38
2023-04-21T17:26:44.390Z,15.18
2023-04-21T17:29:47.385Z,14.98
2023-04-21T17:33:03.997Z,14.79
2023-04-21T17:36:17.062Z,14.60
2023-04-21T17:39:39.672Z,14.40
2023-04-21T17:43:11.191Z,14.20
2023-04-21T17:46:34.467Z,14.02
2023-04-21T17:49:38.812Z,13.86
2023-04-21T17:52:42.995Z,13.74
2023-04-21T17:56:03.473Z,13.57
2023-04-21T17:59:07.082Z,13.42
2023-04-21T18:02:11.832Z,13.25
2023-04-21T18:05:17.229Z,13.09
2023-04-21T18:08:24.944Z,12.96
2023-04-21T18:11:28.973Z,12.80
2023-04-21T18:14:32.014Z,12.72
2023-04-21T18:17:39.331Z,12.63
2023-04-21T18:20:43.506Z,12.48
2023-04-21T18:23:46.882Z,12.37
2023-04-21T18:26:52.606Z,12.24
2023-04-21T18:29:57.847Z,12.14
2023-04-21T18:33:02.474Z,12.03
2023-04-21T18:36:11.680Z,11.95
2023-04-21T18:39:22.544Z,11.84
2023-04-21T18:42:58.600Z,11.79
2023-04-21T18:46:07.488Z,11.63
2023-04-21T18:53:33.523Z,11.52
2023-04-21T18:56:37.135Z,11.39
2023-04-21T18:59:39.716Z,11.29
2023-04-21T19:02:44.910Z,11.18
2023-04-21T19:05:49.514Z,11.08
2023-04-21T19:08:54.655Z,10.99
2023-04-21T19:11:57.383Z,10.90
2023-04-21T19:15:21.629Z,10.85
2023-04-21T19:18:27.385Z,10.79
2023-04-21T19:21:41.627Z,10.74
2023-04-21T19:25:09.173Z,10.70
2023-04-21T19:28:36.017Z,10.67
2023-04-21T19:31:39.451Z,10.60
2023-04-21T19:34:47.481Z,10.52
2023-04-21T19:38:05.307Z,10.40
2023-04-21T19:41:57.912Z,10.36
2023-04-21T19:45:00.670Z,10.24
2023-04-21T19:48:05.110Z,10.18
2023-04-21T19:51:08.124Z,10.12
2023-04-21T19:54:13.272Z,10.07
2023-04-21T19:57:16.276Z,10.02
2023-04-21T20:00:22.551Z,9.97
2023-04-21T20:03:25.955Z,9.88
2023-04-21T20:06:29.292Z,9.87
2023-04-21T20:09:43.034Z,9.78
2023-04-21T20:12:45.988Z,9.77
2023-04-21T20:15:51.772Z,9.70
2023-04-21T20:19:00.821Z,9.63
2023-04-21T20:22:07.136Z,9.59
2023-04-21T20:25:14.877Z,9.61
2023-04-21T20:28:40.636Z,9.54
2023-04-21T20:32:03.610Z,9.43
2023-04-21T20:35:09.210Z,9.44
2023-04-21T20:38:34.661Z,9.34
2023-04-21T20:42:11.965Z,9.30
2023-04-21T20:45:26.447Z,9.23
2023-04-21T20:48:31.897Z,9.16
2023-04-21T20:51:41.037Z,9.09
2023-04-21T20:55:06.625Z,9.03
2023-04-21T20:58:09.940Z,8.98
2023-04-21T21:01:14.525Z,8.94
2023-04-21T21:04:21.285Z,8.95
2023-04-21T21:07:27.385Z,8.89
2023-04-21T21:10:50.392Z,8.84
2023-04-21T21:13:56.920Z,8.83
2023-04-21T21:17:19.833Z,8.80
2023-04-21T21:20:24.178Z,8.75
2023-04-21T21:23:27.308Z,8.71
2023-04-21T21:26:32.757Z,8.70
2023-04-21T21:29:58.422Z,8.65
2023-04-21T21:33:24.266Z,8.65
2023-04-21T21:36:48.396Z,8.58
2023-04-21T21:40:24.700Z,8.55
2023-04-21T21:43:32.118Z,8.58
2023-04-21T21:46:37.107Z,8.54
2023-04-21T21:49:43.125Z,8.55
2023-04-21T21:52:46.475Z,8.54
2023-04-21T21:55:50.107Z,8.59
2023-04-21T21:58:59.465Z,8.64
2023-04-21T22:02:04.197Z,8.74
2023-04-21T22:05:10.499Z,8.77
2023-04-21T22:08:15.680Z,8.77
2023-04-21T22:11:21.490Z,8.70
2023-04-21T22:14:26.681Z,8.70
2023-04-21T22:17:39.748Z,8.69
2023-04-21T22:21:02.657Z,8.68
2023-04-21T22:24:08.448Z,8.57
2023-04-21T22:27:11.975Z,8.60
2023-04-21T22:30:16.606Z,8.61
2023-04-21T22:33:20.154Z,8.55
2023-04-21T22:36:43.684Z,8.50
2023-04-21T22:39:46.640Z,8.40
2023-04-21T22:43:31.515Z,8.34
2023-04-21T22:46:39.376Z,8.31
2023-04-21T22:49:48.992Z,8.29
2023-04-21T22:52:56.706Z,8.23
2023-04-21T22:56:21.360Z,8.23
2023-04-21T22:59:44.444Z,8.14
2023-04-21T23:03:08.249Z,8.11
2023-04-21T23:06:33.335Z,8.11
2023-04-21T23:09:44.050Z,8.04
2023-04-21T23:13:26.863Z,8.05
2023-04-21T23:16:50.122Z,8.03
2023-04-21T23:20:14.876Z,8.00
2023-04-21T23:23:18.684Z,8.03
2023-04-21T23:26:30.671Z,8.00
2023-04-21T23:29:33.980Z,8.05
2023-04-21T23:32:41.521Z,8.03
2023-04-21T23:36:27.797Z,8.04
2023-04-21T23:39:31.924Z,8.07
2023-04-21T23:42:38.199Z,8.07
2023-04-21T23:45:41.999Z,8.12
2023-04-21T23:53:15.474Z,8.11
2023-04-21T23:56:48.186Z,8.17
2023-04-21T23:59:51.232Z,8.19
